Time,TemperatureF,DewpointF,PressureIn,WindDirection,WindDirectionDegrees,WindSpeedMPH,WindSpeedGustMPH,Humidity,HourlyPrecipIn,Conditions,Clouds,dailyrainin,SolarRadiationWatts/m^2,SoftwareType,DateUTC
2013-02-17 00:02:00,42.8,41.0,30.14,North,355,1.0,2.0,94,0.00,,,0.00,0,weatherlink.com 1.10,2013-02-17 08:02:00,
2013-02-17 00:17:00,42.5,41.0,30.14,North,355,1.0,2.0,94,0.00,,,0.00,0,weatherlink.com 1.10,2013-02-17 08:17:00,
2013-02-17 00:32:00,42.3,41.0,30.13,North,355,3.0,4.0,94,0.00,,,0.00,0,weatherlink.com 1.10,2013-02-17 08:32:00,
2013-02-17 00:47:00,43.0,41.0,30.13,North,355,1.0,6.0,94,0.00,,,0.00,0,weatherlink.com 1.10,2013-02-17 08:47:00,
2013-02-17 01:02:00,42.0,40.0,30.13,North,355,3.0,3.0,93,0.00,,,0.00,0,weatherlink.com 1.10,2013-02-17 09:02:00,
2013-02-17 01:17:00,42.4,41.0,30.13,North,355,2.0,5.0,94,0.00,,,0.00,0,weatherlink.com 1.10,2013-02-17 09:17:00,
2013-02-17 01:32:00,42.9,41.0,30.13,North,355,2.0,6.0,93,0.00,,,0.00,0,weatherlink.com 1.10,2013-02-17 09:32:00,
2013-02-17 01:47:00,41.8,40.0,30.12,North,355,1.0,4.0,92,0.00,,,0.00,0,weatherlink.com 1.10,2013-02-17 09:47:00,
2013-02-17 02:02:00,41.0,39.0,30.12,North,355,0.0,3.0,93,0.00,,,0.00,0,weatherlink.com 1.10,2013-02-17 10:02:00,
2013-02-17 02:17:00,41.7,40.0,30.12,North,355,5.0,7.0,94,0.00,,,0.00,0,weatherlink.com 1.10,2013-02-17 10:17:00,
2013-02-17 02:32:00,43.1,41.0,30.12,North,355,2.0,7.0,91,0.00,,,0.00,0,weatherlink.com 1.10,2013-02-17 10:32:00,
2013-02-17 02:47:00,44.0,41.0,30.11,NNW,344,5.0,7.0,88,0.00,,,0.00,0,weatherlink.com 1.10,2013-02-17 10:47:00,
2013-02-17 03:03:00,43.9,40.0,30.11,North,355,3.0,6.0,86,0.01,,,0.01,0,weatherlink.com 1.10,2013-02-17 11:03:00,
2013-02-17 03:18:00,44.2,40.0,30.11,North,5,5.0,9.0,85,0.01,,,0.01,0,weatherlink.com 1.10,2013-02-17 11:18:00,
2013-02-17 03:33:00,43.6,39.0,30.11,North,5,2.0,6.0,83,0.01,,,0.01,0,weatherlink.com 1.10,2013-02-17 11:33:00,
2013-02-17 03:48:00,43.1,39.0,30.10,NNE,25,5.0,7.0,84,0.01,,,0.01,0,weatherlink.com 1.10,2013-02-17 11:48:00,
2013-02-17 04:03:00,43.4,38.0,30.10,NNE,33,4.0,7.0,82,0.00,,,0.01,0,weatherlink.com 1.10,2013-02-17 12:03:00,
2013-02-17 04:18:00,43.7,39.0,30.10,North,5,4.0,10.0,82,0.00,,,0.01,0,weatherlink.com 1.10,2013-02-17 12:18:00,
2013-02-17 04:48:00,44.7,39.0,30.10,NNE,30,7.0,13.0,80,0.00,,,0.01,0,weatherlink.com 1.10,2013-02-17 12:48:00,
2013-02-17 05:03:00,44.6,38.0,30.10,NNE,32,8.0,10.0,79,0.00,,,0.01,0,weatherlink.com 1.10,2013-02-17 13:03:00,
2013-02-17 05:18:00,44.1,38.0,30.10,NNE,26,4.0,7.0,80,0.00,,,0.01,0,weatherlink.com 1.10,2013-02-17 13:18:00,
2013-02-17 05:33:00,42.8,37.0,30.10,NNE,17,1.0,3.0,80,0.00,,,0.01,0,weatherlink.com 1.10,2013-02-17 13:33:00,
2013-02-17 05:48:00,41.0,36.0,30.11,NNE,17,3.0,5.0,83,0.00,,,0.01,0,weatherlink.com 1.10,2013-02-17 13:48:00,
2013-02-17 06:03:00,40.3,36.0,30.11,NNE,17,2.0,3.0,85,0.00,,,0.01,0,weatherlink.com 1.10,2013-02-17 14:03:00,
2013-02-17 06:18:00,40.6,37.0,30.11,NNE,17,3.0,5.0,85,0.00,,,0.01,0,weatherlink.com 1.10,2013-02-17 14:18:00,
2013-02-17 06:33:00,40.4,36.0,30.11,North,355,2.0,3.0,84,0.00,,,0.01,0,weatherlink.com 1.10,2013-02-17 14:33:00,
2013-02-17 06:48:00,38.8,35.0,30.12,North,5,5.0,6.0,85,0.00,,,0.01,0,weatherlink.com 1.10,2013-02-17 14:48:00,
2013-02-17 07:03:00,38.1,35.0,30.11,NNE,26,4.0,7.0,88,0.00,,,0.01,7,weatherlink.com 1.10,2013-02-17 15:03:00,
2013-02-17 07:18:00,38.9,36.0,30.12,NNE,26,2.0,3.0,88,0.00,,,0.01,16,weatherlink.com 1.10,2013-02-17 15:18:00,
2013-02-17 07:33:00,38.4,35.0,30.12,NNE,26,4.0,5.0,88,0.00,,,0.01,56,weatherlink.com 1.10,2013-02-17 15:33:00,
2013-02-17 07:48:00,39.7,37.0,30.12,NNE,26,3.0,4.0,89,0.00,,,0.01,107,weatherlink.com 1.10,2013-02-17 15:48:00,
2013-02-17 08:03:00,42.5,39.0,30.12,North,5,5.0,7.0,86,0.00,,,0.01,160,weatherlink.com 1.10,2013-02-17 16:03:00,
2013-02-17 08:18:00,45.1,40.0,30.12,North,355,2.0,4.0,81,0.00,,,0.01,221,weatherlink.com 1.10,2013-02-17 16:18:00,
2013-02-17 08:33:00,46.2,40.0,30.12,North,355,3.0,6.0,78,0.00,,,0.01,278,weatherlink.com 1.10,2013-02-17 16:33:00,
2013-02-17 08:48:00,47.1,40.0,30.12,NE,37,3.0,7.0,76,0.00,,,0.01,325,weatherlink.com 1.10,2013-02-17 16:48:00,
2013-02-17 09:04:00,48.5,41.0,30.12,NE,40,2.0,5.0,74,0.00,,,0.01,374,weatherlink.com 1.10,2013-02-17 17:04:00,
2013-02-17 09:19:00,49.2,41.0,30.12,NNW,346,3.0,5.0,74,0.00,,,0.01,422,weatherlink.com 1.10,2013-02-17 17:19:00,
2013-02-17 09:34:00,50.2,39.0,30.12,NNE,26,6.0,7.0,66,0.00,,,0.01,462,weatherlink.com 1.10,2013-02-17 17:34:00,
2013-02-17 09:49:00,51.3,40.0,30.12,WNW,302,2.0,8.0,65,0.00,,,0.01,503,weatherlink.com 1.10,2013-02-17 17:49:00,
2013-02-17 10:04:00,52.9,39.0,30.11,WNW,299,3.0,7.0,59,0.00,,,0.01,534,weatherlink.com 1.10,2013-02-17 18:04:00,
2013-02-17 10:19:00,53.9,41.0,30.11,NW,318,4.0,9.0,61,0.00,,,0.01,568,weatherlink.com 1.10,2013-02-17 18:19:00,
2013-02-17 10:34:00,-999.0,-99.9,30.11,WNW,288,6.0,9.0,-999,0.00,,,0.01,1760,weatherlink.com 1.10,2013-02-17 18:34:00,
2013-02-17 10:49:00,-999.0,-99.9,30.11,WNW,288,2.0,9.0,-999,0.00,,,0.01,1765,weatherlink.com 1.10,2013-02-17 18:49:00,
2013-02-17 11:04:00,-999.0,-99.9,30.11,WNW,296,7.0,15.0,-999,0.00,,,0.01,1770,weatherlink.com 1.10,2013-02-17 19:04:00,
2013-02-17 11:19:00,-999.0,-99.9,30.11,WNW,301,5.0,14.0,-999,0.00,,,0.01,1775,weatherlink.com 1.10,2013-02-17 19:19:00,
2013-02-17 11:34:00,-999.0,-99.9,30.11,WNW,291,6.0,13.0,-999,0.00,,,0.01,1779,weatherlink.com 1.10,2013-02-17 19:34:00,
2013-02-17 11:49:00,-999.0,-99.9,30.10,NW,304,2.0,15.0,-999,0.00,,,0.01,1781,weatherlink.com 1.10,2013-02-17 19:49:00,
2013-02-17 12:04:00,-999.0,-99.9,30.09,WNW,290,11.0,15.0,-999,0.00,,,0.01,1782,weatherlink.com 1.10,2013-02-17 20:04:00,
2013-02-17 12:20:00,-999.0,-99.9,30.09,NNW,333,3.0,12.0,-999,0.00,,,0.01,,weatherlink.com 1.10,2013-02-17 20:20:00,
2013-02-17 12:35:00,-999.0,-99.9,30.08,WNW,283,7.0,14.0,-999,0.00,,,0.01,,weatherlink.com 1.10,2013-02-17 20:35:00,
2013-02-17 12:50:00,-999.0,-99.9,30.08,NNW,342,6.0,14.0,-999,0.00,,,0.01,,weatherlink.com 1.10,2013-02-17 20:50:00,
2013-02-17 13:05:00,-999.0,-99.9,30.07,NW,315,6.0,14.0,-999,0.00,,,0.01,,weatherlink.com 1.10,2013-02-17 21:05:00,
2013-02-17 13:20:00,-999.0,-99.9,30.07,West,281,8.0,16.0,-999,0.00,,,0.01,,weatherlink.com 1.10,2013-02-17 21:20:00,
2013-02-17 13:35:00,-999.0,-99.9,30.07,NNW,331,4.0,14.0,-999,0.00,,,0.01,,weatherlink.com 1.10,2013-02-17 21:35:00,
2013-02-17 13:50:00,-999.0,-99.9,30.06,WSW,257,11.0,14.0,-999,0.00,,,0.01,,weatherlink.com 1.10,2013-02-17 21:50:00,
2013-02-17 14:05:00,-999.0,-99.9,30.06,NW,318,4.0,15.0,-999,0.00,,,0.01,,weatherlink.com 1.10,2013-02-17 22:05:00,
2013-02-17 14:20:00,-999.0,-99.9,30.06,WNW,284,5.0,15.0,-999,0.00,,,0.01,,weatherlink.com 1.10,2013-02-17 22:20:00,
2013-02-17 14:35:00,-999.0,-99.9,30.06,WNW,298,4.0,13.0,-999,0.00,,,0.01,,weatherlink.com 1.10,2013-02-17 22:35:00,
2013-02-17 14:50:00,-999.0,-99.9,30.05,NW,323,5.0,12.0,-999,0.00,,,0.01,,weatherlink.com 1.10,2013-02-17 22:50:00,
2013-02-17 15:05:00,54.6,44.0,30.05,NW,324,7.0,15.0,67,0.00,,,0.01,459,weatherlink.com 1.10,2013-02-17 23:05:00,
2013-02-17 15:20:00,54.2,43.0,30.05,North,360,9.0,14.0,67,0.00,,,0.01,418,weatherlink.com 1.10,2013-02-17 23:20:00,
2013-02-17 15:35:00,54.0,44.0,30.05,NNW,340,5.0,15.0,68,0.00,,,0.01,376,weatherlink.com 1.10,2013-02-17 23:35:00,
2013-02-17 15:50:00,53.9,44.0,30.05,NW,304,4.0,16.0,69,0.00,,,0.01,332,weatherlink.com 1.10,2013-02-17 23:50:00,
2013-02-17 16:05:00,53.7,44.0,30.05,NNW,339,14.0,14.0,71,0.00,,,0.01,283,weatherlink.com 1.10,2013-02-18 00:05:00,
2013-02-17 16:20:00,53.0,45.0,30.04,NW,304,9.0,16.0,73,0.00,,,0.01,237,weatherlink.com 1.10,2013-02-18 00:20:00,
2013-02-17 16:36:00,52.7,45.0,30.04,NNW,337,5.0,14.0,75,0.00,,,0.01,188,weatherlink.com 1.10,2013-02-18 00:36:00,
2013-02-17 16:51:00,52.3,45.0,30.04,North,5,4.0,12.0,75,0.00,,,0.01,141,weatherlink.com 1.10,2013-02-18 00:51:00,
2013-02-17 17:06:00,51.9,45.0,30.04,NW,307,7.0,12.0,76,0.00,,,0.01,91,weatherlink.com 1.10,2013-02-18 01:06:00,
2013-02-17 17:21:00,51.5,44.0,30.04,North,355,5.0,9.0,75,0.00,,,0.01,46,weatherlink.com 1.10,2013-02-18 01:21:00,
2013-02-17 17:36:00,50.7,43.0,30.04,NNW,348,3.0,8.0,76,0.00,,,0.01,19,weatherlink.com 1.10,2013-02-18 01:36:00,
2013-02-17 17:51:00,50.0,43.0,30.04,North,355,4.0,5.0,76,0.00,,,0.01,7,weatherlink.com 1.10,2013-02-18 01:51:00,
2013-02-17 18:06:00,49.2,43.0,30.04,North,355,1.0,4.0,78,0.00,,,0.01,0,weatherlink.com 1.10,2013-02-18 02:06:00,
2013-02-17 18:21:00,48.7,42.0,30.04,North,349,4.0,8.0,79,0.00,,,0.01,0,weatherlink.com 1.10,2013-02-18 02:21:00,
2013-02-17 18:36:00,47.9,42.0,30.05,North,360,2.0,4.0,80,0.00,,,0.01,0,weatherlink.com 1.10,2013-02-18 02:36:00,
2013-02-17 18:51:00,47.1,42.0,30.05,North,360,0.0,3.0,81,0.00,,,0.01,0,weatherlink.com 1.10,2013-02-18 02:51:00,
2013-02-17 19:06:00,46.7,42.0,30.05,North,360,1.0,4.0,82,0.00,,,0.01,0,weatherlink.com 1.10,2013-02-18 03:06:00,
2013-02-17 19:21:00,46.0,41.0,30.05,North,360,2.0,3.0,83,0.00,,,0.01,0,weatherlink.com 1.10,2013-02-18 03:21:00,
2013-02-17 19:36:00,45.3,40.0,30.05,North,360,1.0,2.0,83,0.00,,,0.01,0,weatherlink.com 1.10,2013-02-18 03:36:00,
2013-02-17 19:51:00,44.4,40.0,30.05,North,360,0.0,2.0,85,0.00,,,0.01,0,weatherlink.com 1.10,2013-02-18 03:51:00,
2013-02-17 20:06:00,43.5,40.0,30.05,North,360,1.0,3.0,86,0.00,,,0.01,0,weatherlink.com 1.10,2013-02-18 04:06:00,
2013-02-17 20:21:00,43.1,40.0,30.05,North,360,1.0,4.0,88,0.00,,,0.01,0,weatherlink.com 1.10,2013-02-18 04:21:00,
2013-02-17 20:36:00,42.3,39.0,30.05,North,360,4.0,4.0,88,0.00,,,0.01,0,weatherlink.com 1.10,2013-02-18 04:36:00,
2013-02-17 20:51:00,42.8,40.0,30.06,North,360,2.0,6.0,90,0.00,,,0.01,0,weatherlink.com 1.10,2013-02-18 04:51:00,
2013-02-17 21:06:00,43.2,41.0,30.06,North,360,2.0,6.0,90,0.00,,,0.01,0,weatherlink.com 1.10,2013-02-18 05:06:00,
2013-02-17 21:21:00,42.3,40.0,30.06,North,360,0.0,3.0,90,0.00,,,0.01,0,weatherlink.com 1.10,2013-02-18 05:21:00,
2013-02-17 21:36:00,41.6,39.0,30.07,North,360,1.0,2.0,90,0.00,,,0.01,0,weatherlink.com 1.10,2013-02-18 05:36:00,
2013-02-17 21:51:00,41.6,39.0,30.07,North,360,0.0,3.0,91,0.00,,,0.01,0,weatherlink.com 1.10,2013-02-18 05:51:00,
2013-02-17 22:06:00,41.3,39.0,30.07,North,360,1.0,3.0,91,0.00,,,0.01,0,weatherlink.com 1.10,2013-02-18 06:06:00,
2013-02-17 22:21:00,41.3,39.0,30.07,North,360,1.0,3.0,91,0.00,,,0.01,0,weatherlink.com 1.10,2013-02-18 06:21:00,
2013-02-17 22:36:00,40.6,38.0,30.07,North,360,1.0,3.0,90,0.00,,,0.01,0,weatherlink.com 1.10,2013-02-18 06:36:00,
2013-02-17 22:51:00,40.4,38.0,30.07,North,360,2.0,3.0,90,0.00,,,0.01,0,weatherlink.com 1.10,2013-02-18 06:51:00,
2013-02-17 23:06:00,41.9,40.0,30.07,North,360,4.0,5.0,92,0.00,,,0.01,0,weatherlink.com 1.10,2013-02-18 07:06:00,
2013-02-17 23:21:00,41.9,39.0,30.07,North,360,2.0,3.0,89,0.00,,,0.01,0,weatherlink.com 1.10,2013-02-18 07:21:00,
2013-02-17 23:36:00,41.5,39.0,30.07,North,360,3.0,4.0,90,0.00,,,0.01,0,weatherlink.com 1.10,2013-02-18 07:36:00,
2013-02-17 23:51:00,42.5,40.0,30.07,North,360,3.0,7.0,91,0.00,,,0.01,0,weatherlink.com 1.10,2013-02-18 07:51:00,